Time;durP1;ratioP1;P1;durP2;ratioP2;P2;SDS_P1;SDS_P2;PMS_P1;PMS_P2;Temp;Humidity;BMP_temperature;BMP_pressure;BME280_temperature;BME280_humidity;BME280_pressure;Samples;Min_cycle;Max_cycle;Signal;HPM_P1;HPM_P2
2023/05/18 00:02:17;;;;;;;5.00;3.50;;;5.70;99.90;;;;;;5018374;28;20559;-84
2023/05/18 00:04:43;;;;;;;8.05;3.90;;;5.70;99.90;;;;;;5015209;28;20030;-84
2023/05/18 00:07:09;;;;;;;4.50;3.40;;;5.50;99.90;;;;;;5018160;28;20211;-84
2023/05/18 00:09:36;;;;;;;7.97;3.72;;;5.40;99.90;;;;;;5022837;28;20034;-84
2023/05/18 00:12:03;;;;;;;5.68;3.70;;;5.30;99.90;;;;;;5023562;28;20018;-84
2023/05/18 00:14:29;;;;;;;4.93;3.53;;;5.30;99.90;;;;;;5016274;28;20126;-84
2023/05/18 00:16:56;;;;;;;7.05;3.60;;;5.40;99.90;;;;;;4998315;28;20046;-83
2023/05/18 00:19:23;;;;;;;6.50;3.60;;;5.50;99.90;;;;;;5015269;28;20034;-84
2023/05/18 00:21:50;;;;;;;6.38;3.33;;;5.50;99.90;;;;;;5018586;28;20041;-83
2023/05/18 00:24:16;;;;;;;6.55;3.72;;;5.50;99.90;;;;;;5020834;28;20114;-84
2023/05/18 00:26:44;;;;;;;10.02;4.10;;;5.50;99.90;;;;;;5017175;28;20026;-83
2023/05/18 00:29:10;;;;;;;5.83;3.20;;;5.50;99.90;;;;;;5022679;28;20034;-84
2023/05/18 00:31:37;;;;;;;5.05;3.60;;;5.40;99.90;;;;;;5005757;28;20552;-84
2023/05/18 00:34:11;;;;;;;5.18;3.47;;;5.30;99.90;;;;;;5019437;28;20117;-83
2023/05/18 00:36:37;;;;;;;4.15;3.20;;;5.30;99.90;;;;;;5018589;28;20049;-83
2023/05/18 00:39:04;;;;;;;4.65;3.33;;;5.30;99.90;;;;;;5019965;28;20073;-84
2023/05/18 00:41:30;;;;;;;4.22;3.20;;;5.30;99.90;;;;;;5018931;28;20033;-83
2023/05/18 00:43:56;;;;;;;6.63;3.35;;;5.30;99.90;;;;;;5016733;28;20037;-84
2023/05/18 00:46:23;;;;;;;3.65;3.15;;;5.20;99.90;;;;;;5019777;28;20029;-84
2023/05/18 00:48:50;;;;;;;3.95;2.70;;;5.10;99.90;;;;;;5019790;28;20057;-83
2023/05/18 00:51:18;;;;;;;3.40;2.60;;;5.00;99.90;;;;;;5020967;28;20042;-83
2023/05/18 00:53:45;;;;;;;2.70;2.50;;;5.00;99.90;;;;;;5019198;28;20097;-83
2023/05/18 00:56:11;;;;;;;2.58;2.38;;;4.90;99.90;;;;;;5020717;28;20296;-84
2023/05/18 00:58:41;;;;;;;4.45;2.70;;;4.90;99.90;;;;;;5020015;28;20621;-84
2023/05/18 01:01:08;;;;;;;4.25;3.42;;;4.90;99.90;;;;;;5018241;28;20386;-76
2023/05/18 01:03:37;;;;;;;4.82;2.80;;;4.90;99.90;;;;;;5023198;28;20041;-76
2023/05/18 01:06:04;;;;;;;4.78;3.17;;;4.90;99.90;;;;;;5025721;28;20044;-76
2023/05/18 01:08:31;;;;;;;7.60;3.50;;;5.00;99.90;;;;;;5026318;28;20041;-76
2023/05/18 01:11:09;;;;;;;4.38;3.08;;;5.00;99.90;;;;;;5013541;28;20026;-76
2023/05/18 01:13:49;;;;;;;2.92;2.63;;;4.90;99.90;;;;;;5021579;28;20049;-76
2023/05/18 01:16:20;;;;;;;3.08;2.58;;;4.90;99.90;;;;;;5025255;28;20061;-75
2023/05/18 01:18:54;;;;;;;2.53;2.20;;;4.80;99.90;;;;;;5025306;28;20044;-76
2023/05/18 01:21:53;;;;;;;2.25;1.95;;;4.70;99.90;;;;;;5008126;28;20042;-77
2023/05/18 01:24:24;;;;;;;2.08;1.92;;;4.70;99.90;;;;;;5019841;28;20639;-76
2023/05/18 01:26:56;;;;;;;3.13;2.33;;;4.70;99.90;;;;;;5021048;28;20042;-76
2023/05/18 01:29:24;;;;;;;1.95;1.85;;;4.70;99.90;;;;;;5022145;28;20033;-76
2023/05/18 01:31:50;;;;;;;2.17;1.98;;;4.70;99.90;;;;;;5017237;28;20050;-76
2023/05/18 01:34:15;;;;;;;3.33;2.50;;;4.50;99.90;;;;;;5016723;28;20032;-75
2023/05/18 01:36:41;;;;;;;2.55;2.30;;;4.50;99.90;;;;;;5023803;28;20076;-76
2023/05/18 01:39:08;;;;;;;3.40;2.95;;;4.50;99.90;;;;;;5020810;28;20034;-76
2023/05/18 01:41:38;;;;;;;3.75;2.80;;;4.40;99.90;;;;;;5021641;28;20010;-76
2023/05/18 01:44:28;;;;;;;2.20;2.00;;;4.40;99.90;;;;;;5019270;28;20012;-76
2023/05/18 01:47:14;;;;;;;2.70;2.50;;;4.40;99.90;;;;;;5004163;28;20034;-76
2023/05/18 01:50:04;;;;;;;3.25;2.40;;;4.30;99.90;;;;;;5018492;28;20059;-76
2023/05/18 01:52:46;;;;;;;2.92;2.72;;;4.30;99.90;;;;;;5019353;28;20030;-76
2023/05/18 01:55:16;;;;;;;3.00;2.70;;;4.30;99.90;;;;;;5017128;28;20030;-76
2023/05/18 01:57:44;;;;;;;3.05;2.70;;;4.30;99.90;;;;;;4994175;28;20141;-76
2023/05/18 02:00:11;;;;;;;3.03;2.45;;;4.30;99.90;;;;;;5015024;28;20045;-76
2023/05/18 02:02:37;;;;;;;3.03;2.67;;;4.30;99.90;;;;;;5018288;28;20053;-75
2023/05/18 02:05:04;;;;;;;5.35;3.88;;;4.30;99.90;;;;;;5011030;28;20108;-76
2023/05/18 02:07:30;;;;;;;8.68;4.47;;;4.30;99.90;;;;;;5018950;28;20041;-76
2023/05/18 02:09:55;;;;;;;6.70;4.57;;;4.30;99.90;;;;;;5018384;28;20042;-76
2023/05/18 02:12:21;;;;;;;6.22;4.20;;;4.20;99.90;;;;;;5018950;28;20061;-76
2023/05/18 02:14:46;;;;;;;8.65;4.25;;;4.20;99.90;;;;;;5015834;28;20049;-75
2023/05/18 02:17:12;;;;;;;7.28;4.25;;;4.20;99.90;;;;;;5009906;28;20121;-76
2023/05/18 02:19:38;;;;;;;9.52;4.20;;;4.10;99.90;;;;;;5002505;28;20052;-76
2023/05/18 02:22:09;;;;;;;7.85;4.85;;;3.90;99.90;;;;;;5015555;28;20045;-76
2023/05/18 02:24:34;;;;;;;7.75;4.38;;;3.90;99.90;;;;;;5012169;28;20065;-76
2023/05/18 02:27:00;;;;;;;6.35;4.63;;;4.00;99.90;;;;;;5018222;28;20030;-76
2023/05/18 02:29:26;;;;;;;6.35;4.03;;;4.00;99.90;;;;;;5011332;28;20033;-76
2023/05/18 02:31:51;;;;;;;8.65;4.45;;;4.00;99.90;;;;;;5014756;28;20038;-76
2023/05/18 02:34:17;;;;;;;9.75;4.80;;;4.10;99.90;;;;;;5017494;28;20034;-76
2023/05/18 02:36:44;;;;;;;8.93;4.55;;;4.10;99.90;;;;;;5016940;28;20101;-75
2023/05/18 02:39:11;;;;;;;8.43;4.55;;;4.20;99.90;;;;;;5019597;28;20077;-75
2023/05/18 02:41:37;;;;;;;8.60;4.68;;;4.30;99.90;;;;;;5017346;28;20034;-76
2023/05/18 02:44:03;;;;;;;7.80;4.13;;;4.30;99.90;;;;;;5019321;28;20040;-75
2023/05/18 02:46:30;;;;;;;7.55;4.22;;;4.30;99.90;;;;;;5012341;28;20057;-76
2023/05/18 02:48:56;;;;;;;8.55;4.80;;;4.20;99.90;;;;;;5015003;28;20057;-75
2023/05/18 02:51:22;;;;;;;6.13;4.15;;;4.30;99.90;;;;;;5015601;28;20081;-76
2023/05/18 02:53:48;;;;;;;6.82;4.78;;;4.20;99.90;;;;;;5000860;28;20060;-76
2023/05/18 02:56:14;;;;;;;7.57;5.10;;;4.30;99.90;;;;;;5020097;28;20492;-76
2023/05/18 02:58:42;;;;;;;4.80;3.90;;;4.20;99.90;;;;;;5017951;28;20029;-75
2023/05/18 03:01:08;;;;;;;8.38;4.68;;;4.10;99.90;;;;;;5012286;28;20426;-76
2023/05/18 03:03:34;;;;;;;8.02;4.88;;;4.10;99.90;;;;;;4999874;28;20033;-75
2023/05/18 03:06:03;;;;;;;6.00;5.20;;;4.20;99.90;;;;;;5018545;28;20477;-75
2023/05/18 03:08:30;;;;;;;9.57;5.13;;;4.10;99.90;;;;;;4997296;28;20061;-75
2023/05/18 03:10:56;;;;;;;11.38;4.80;;;4.10;99.90;;;;;;5018549;28;20084;-76
2023/05/18 03:13:22;;;;;;;11.85;4.90;;;4.10;99.90;;;;;;5022918;28;20186;-76
2023/05/18 03:15:49;;;;;;;11.85;4.57;;;4.20;99.90;;;;;;5016217;28;20112;-76
2023/05/18 03:18:15;;;;;;;6.07;4.15;;;4.20;99.90;;;;;;5020051;28;20033;-75
2023/05/18 03:20:42;;;;;;;8.50;4.38;;;4.10;99.90;;;;;;5009627;28;20026;-75
2023/05/18 03:23:07;;;;;;;10.77;4.60;;;4.10;99.90;;;;;;5016908;28;20040;-77
2023/05/18 03:25:36;;;;;;;8.07;4.40;;;4.10;99.90;;;;;;5021422;28;20029;-75
2023/05/18 03:28:04;;;;;;;7.18;4.65;;;4.10;99.90;;;;;;5025792;28;20054;-76
2023/05/18 03:30:33;;;;;;;8.60;4.57;;;4.20;99.90;;;;;;5016177;28;20517;-76
2023/05/18 03:33:00;;;;;;;5.97;4.75;;;4.20;99.90;;;;;;5004680;28;20525;-75
2023/05/18 03:35:26;;;;;;;8.32;4.50;;;4.10;99.90;;;;;;5017673;28;20045;-75
2023/05/18 03:37:52;;;;;;;9.43;4.63;;;4.20;99.90;;;;;;5013520;28;20042;-76
2023/05/18 03:40:18;;;;;;;7.40;4.60;;;4.20;99.90;;;;;;5015330;28;20026;-76
2023/05/18 03:42:44;;;;;;;12.45;4.78;;;4.20;99.90;;;;;;4998137;28;20061;-76
2023/05/18 03:45:11;;;;;;;7.25;4.97;;;4.20;99.90;;;;;;5020845;28;21105;-76
2023/05/18 03:47:38;;;;;;;9.95;4.50;;;4.20;99.90;;;;;;5023158;28;20052;-76
2023/05/18 03:50:04;;;;;;;6.72;4.18;;;4.10;99.90;;;;;;5014382;28;20066;-76
2023/05/18 03:52:33;;;;;;;6.90;4.53;;;4.10;99.90;;;;;;5001435;28;20031;-76
2023/05/18 03:55:03;;;;;;;10.05;4.97;;;4.20;99.90;;;;;;5001952;28;20109;-76
2023/05/18 03:57:29;;;;;;;5.47;4.40;;;4.20;99.90;;;;;;5002441;28;20561;-76
2023/05/18 03:59:55;;;;;;;6.68;4.68;;;4.20;99.90;;;;;;4997743;28;20066;-76
2023/05/18 04:02:21;;;;;;;8.80;4.35;;;4.20;99.90;;;;;;5004591;28;20042;-77
2023/05/18 04:04:47;;;;;;;7.78;4.95;;;4.20;99.90;;;;;;5001428;28;20030;-77
2023/05/18 04:07:15;;;;;;;8.00;4.60;;;4.20;99.90;;;;;;5001089;28;20038;-77
2023/05/18 04:09:41;;;;;;;7.32;4.88;;;4.30;99.90;;;;;;5002884;28;20048;-77
2023/05/18 04:12:08;;;;;;;4.93;4.43;;;4.30;99.90;;;;;;5001103;28;20030;-76
2023/05/18 04:14:34;;;;;;;8.77;4.75;;;4.30;99.90;;;;;;4985604;28;20026;-76
2023/05/18 04:17:11;;;;;;;7.22;4.75;;;4.30;99.90;;;;;;4983957;28;20042;-78
2023/05/18 04:19:37;;;;;;;6.25;4.38;;;4.30;99.90;;;;;;4995315;28;20058;-76
2023/05/18 04:22:06;;;;;;;10.05;5.35;;;4.30;99.90;;;;;;4998113;28;20026;-76
2023/05/18 04:24:33;;;;;;;13.13;4.25;;;4.30;99.90;;;;;;4994981;28;20026;-77
2023/05/18 04:27:00;;;;;;;11.15;4.93;;;4.40;99.90;;;;;;4994961;28;20037;-77
2023/05/18 04:29:27;;;;;;;6.55;4.70;;;4.40;99.90;;;;;;4982066;28;20030;-77
2023/05/18 04:31:59;;;;;;;7.90;4.70;;;4.40;99.90;;;;;;4995876;28;20050;-76
2023/05/18 04:34:28;;;;;;;8.85;4.63;;;4.40;99.90;;;;;;4998136;28;20116;-76
2023/05/18 04:36:55;;;;;;;10.40;5.30;;;4.50;99.90;;;;;;5000527;28;20469;-76
2023/05/18 04:39:24;;;;;;;8.75;4.72;;;4.50;99.90;;;;;;5002198;28;20038;-77
2023/05/18 04:41:56;;;;;;;10.13;4.70;;;4.60;99.90;;;;;;5015480;28;20037;-76
2023/05/18 04:44:24;;;;;;;7.15;4.30;;;4.60;99.90;;;;;;4999715;28;20053;-77
2023/05/18 04:46:51;;;;;;;6.50;4.00;;;4.60;99.90;;;;;;4999434;28;20027;-76
2023/05/18 04:49:20;;;;;;;9.18;4.85;;;4.70;99.90;;;;;;4988267;28;20054;-76
2023/05/18 04:51:54;;;;;;;5.57;4.13;;;4.80;99.90;;;;;;5015192;28;20304;-76
2023/05/18 04:54:23;;;;;;;8.05;4.60;;;4.90;99.90;;;;;;5016825;28;20036;-76
2023/05/18 04:56:50;;;;;;;9.00;5.82;;;5.00;99.90;;;;;;5018045;28;20480;-76
2023/05/18 04:59:16;;;;;;;10.15;5.40;;;5.10;99.90;;;;;;5020081;28;20034;-76
2023/05/18 05:01:41;;;;;;;11.15;5.18;;;5.20;99.90;;;;;;5024321;28;20045;-76
2023/05/18 05:04:07;;;;;;;7.32;5.18;;;5.30;99.90;;;;;;5018933;28;20108;-76
2023/05/18 05:06:32;;;;;;;9.98;5.10;;;5.40;99.90;;;;;;5024440;28;20044;-76
2023/05/18 05:08:58;;;;;;;7.43;5.10;;;5.40;99.90;;;;;;5026863;28;20497;-76
2023/05/18 05:11:24;;;;;;;8.88;5.20;;;5.50;99.90;;;;;;5003718;28;20046;-76
2023/05/18 05:13:49;;;;;;;11.02;5.68;;;5.60;99.90;;;;;;5013063;28;20058;-76
2023/05/18 05:16:15;;;;;;;10.95;5.13;;;5.80;99.90;;;;;;5020781;28;20080;-76
2023/05/18 05:18:41;;;;;;;7.55;5.15;;;5.80;99.90;;;;;;5002491;28;20060;-75
2023/05/18 05:21:08;;;;;;;8.13;5.22;;;5.90;99.90;;;;;;5021790;28;20128;-76
2023/05/18 05:23:34;;;;;;;6.85;5.05;;;6.00;99.90;;;;;;5021823;28;20041;-77
2023/05/18 05:26:00;;;;;;;8.68;5.25;;;6.10;99.90;;;;;;5022912;28;20448;-76
2023/05/18 05:28:26;;;;;;;9.95;5.35;;;6.30;99.90;;;;;;5022767;28;20991;-76
2023/05/18 05:30:51;;;;;;;8.98;5.35;;;6.40;99.90;;;;;;5004887;28;20549;-76
2023/05/18 05:33:17;;;;;;;8.35;5.03;;;6.40;99.90;;;;;;5022791;28;20049;-75
2023/05/18 05:35:43;;;;;;;11.80;5.35;;;6.50;99.90;;;;;;5022225;28;20056;-76
2023/05/18 05:38:09;;;;;;;9.80;5.40;;;6.70;99.90;;;;;;5024472;28;20022;-76
2023/05/18 05:40:35;;;;;;;8.55;4.97;;;6.90;99.90;;;;;;5022083;28;20026;-76
2023/05/18 05:43:00;;;;;;;11.55;6.05;;;7.00;99.90;;;;;;5019145;28;20030;-77
2023/05/18 05:45:29;;;;;;;11.55;6.10;;;7.20;99.90;;;;;;5012599;28;20108;-78
2023/05/18 05:47:54;;;;;;;7.10;5.03;;;7.40;99.90;;;;;;5022286;28;20041;-76
2023/05/18 05:50:20;;;;;;;8.70;5.53;;;7.60;99.90;;;;;;5026939;28;20065;-76
2023/05/18 05:52:46;;;;;;;7.88;5.85;;;7.80;99.90;;;;;;5023369;28;20037;-76
2023/05/18 05:55:11;;;;;;;6.57;5.47;;;7.90;99.90;;;;;;5023986;28;20093;-76
2023/05/18 05:57:41;;;;;;;8.88;5.25;;;8.00;99.90;;;;;;5022532;28;20069;-76
2023/05/18 06:00:10;;;;;;;8.32;4.60;;;8.20;99.90;;;;;;5021180;28;20033;-76
2023/05/18 06:02:37;;;;;;;7.45;5.35;;;8.30;99.90;;;;;;5009633;28;20042;-76
2023/05/18 06:05:02;;;;;;;5.63;4.40;;;8.50;99.90;;;;;;5020500;28;20030;-76
2023/05/18 06:07:29;;;;;;;9.50;4.97;;;8.50;99.90;;;;;;5018459;28;20077;-76
2023/05/18 06:09:55;;;;;;;5.30;4.13;;;8.60;99.90;;;;;;5020451;28;20624;-75
2023/05/18 06:12:20;;;;;;;7.70;4.13;;;8.70;99.90;;;;;;5021387;28;20041;-75
2023/05/18 06:14:46;;;;;;;7.25;4.40;;;8.90;99.90;;;;;;5023865;28;20030;-75
2023/05/18 06:17:12;;;;;;;7.47;4.38;;;9.00;99.90;;;;;;5025205;28;20082;-76
2023/05/18 06:19:38;;;;;;;4.68;4.00;;;9.00;99.90;;;;;;5021294;28;20069;-76
2023/05/18 06:22:04;;;;;;;8.07;4.63;;;9.10;99.90;;;;;;5021853;28;20037;-77
2023/05/18 06:24:29;;;;;;;7.65;3.78;;;9.30;99.90;;;;;;5018082;28;20475;-76
2023/05/18 06:26:55;;;;;;;6.10;4.10;;;9.40;99.90;;;;;;5022868;28;20165;-76
2023/05/18 06:29:20;;;;;;;5.78;4.07;;;9.50;99.90;;;;;;5021675;28;20544;-77
2023/05/18 06:31:46;;;;;;;5.55;3.70;;;9.50;99.90;;;;;;5020217;28;20046;-76
2023/05/18 06:34:12;;;;;;;7.25;4.22;;;9.60;99.90;;;;;;5019753;28;20029;-76
2023/05/18 06:36:37;;;;;;;5.95;4.47;;;9.70;99.90;;;;;;5017512;28;20049;-76
2023/05/18 06:39:04;;;;;;;4.75;4.10;;;9.90;99.90;;;;;;5012412;28;20029;-76
2023/05/18 06:41:30;;;;;;;6.05;4.22;;;9.90;99.90;;;;;;5024261;28;20018;-77
2023/05/18 06:43:59;;;;;;;7.22;4.50;;;10.00;99.90;;;;;;5020349;28;20038;-76
2023/05/18 06:46:26;;;;;;;5.57;4.00;;;10.10;99.90;;;;;;5017808;28;20034;-76
2023/05/18 06:48:52;;;;;;;7.75;4.00;;;10.10;99.90;;;;;;5020721;28;20084;-77
2023/05/18 06:51:19;;;;;;;5.88;4.25;;;10.20;99.90;;;;;;5025360;28;20477;-77
2023/05/18 06:53:45;;;;;;;5.60;3.83;;;10.20;99.90;;;;;;5005427;28;20038;-76
2023/05/18 06:56:11;;;;;;;8.93;4.25;;;10.30;99.90;;;;;;5026643;28;20097;-76
2023/05/18 06:58:38;;;;;;;5.30;4.70;;;10.30;99.90;;;;;;5025189;28;20041;-76
2023/05/18 07:01:04;;;;;;;7.32;4.53;;;10.40;99.90;;;;;;5012853;28;20052;-75
2023/05/18 07:03:29;;;;;;;6.30;4.57;;;10.50;99.90;;;;;;5024973;28;20053;-76
2023/05/18 07:05:55;;;;;;;7.07;3.88;;;10.60;99.90;;;;;;5006086;28;20073;-76
2023/05/18 07:08:21;;;;;;;7.00;4.57;;;10.60;99.90;;;;;;5026482;28;20041;-76
2023/05/18 07:10:46;;;;;;;5.78;4.10;;;10.70;99.90;;;;;;5021289;28;20022;-76
2023/05/18 07:13:14;;;;;;;5.75;4.30;;;10.70;99.90;;;;;;5009157;28;20060;-76
2023/05/18 07:15:40;;;;;;;9.27;4.63;;;10.70;99.90;;;;;;5021256;28;20394;-76
2023/05/18 07:18:05;;;;;;;8.30;4.68;;;10.90;99.90;;;;;;5015922;28;20036;-76
2023/05/18 07:20:31;;;;;;;7.63;4.28;;;11.10;99.90;;;;;;5018410;28;20036;-76
2023/05/18 07:22:57;;;;;;;5.90;3.85;;;11.20;99.90;;;;;;5017887;28;20045;-76
2023/05/18 07:25:23;;;;;;;6.40;3.78;;;11.10;99.90;;;;;;5016083;28;20097;-75
2023/05/18 07:27:53;;;;;;;5.93;4.00;;;11.20;99.90;;;;;;5018987;28;20127;-77
2023/05/18 07:30:19;;;;;;;7.25;4.35;;;11.40;99.90;;;;;;5020381;28;20101;-78
2023/05/18 07:32:45;;;;;;;8.63;3.90;;;11.50;99.90;;;;;;5021090;28;20038;-76
2023/05/18 07:35:11;;;;;;;4.65;3.60;;;11.50;99.90;;;;;;5024442;28;20065;-76
2023/05/18 07:37:37;;;;;;;8.65;4.40;;;11.50;99.90;;;;;;5022808;28;20033;-78
2023/05/18 07:40:03;;;;;;;9.23;4.32;;;11.50;99.90;;;;;;5017437;28;20083;-78
2023/05/18 07:42:32;;;;;;;6.80;4.70;;;11.40;99.90;;;;;;5023038;28;20029;-77
2023/05/18 07:44:58;;;;;;;9.40;4.45;;;11.50;99.90;;;;;;5021774;28;20048;-79
2023/05/18 07:47:24;;;;;;;6.90;4.00;;;11.50;99.90;;;;;;5008504;28;20045;-80
2023/05/18 07:49:49;;;;;;;5.43;4.18;;;11.60;99.90;;;;;;5024128;28;20057;-81
2023/05/18 07:52:15;;;;;;;9.63;4.25;;;11.70;99.90;;;;;;5007570;28;20075;-83
2023/05/18 07:54:41;;;;;;;9.52;5.38;;;11.70;99.90;;;;;;5023636;28;20045;-82
2023/05/18 07:57:07;;;;;;;6.43;3.92;;;11.80;99.90;;;;;;5003945;28;20065;-82
2023/05/18 07:59:37;;;;;;;8.40;4.70;;;12.00;99.90;;;;;;5007428;28;20036;-83
2023/05/18 08:02:04;;;;;;;9.35;4.13;;;12.00;99.90;;;;;;4989579;28;20042;-83
2023/05/18 08:04:30;;;;;;;7.90;3.80;;;11.80;99.90;;;;;;5019290;28;20378;-83
2023/05/18 08:06:59;;;;;;;7.82;3.60;;;11.80;99.90;;;;;;5022711;28;20038;-81
2023/05/18 08:09:28;;;;;;;8.45;4.05;;;12.00;99.90;;;;;;5007374;28;20065;-82
2023/05/18 08:11:54;;;;;;;7.22;3.58;;;12.40;99.90;;;;;;5021086;28;20484;-83
2023/05/18 08:14:20;;;;;;;6.25;4.10;;;12.50;99.90;;;;;;5021585;28;20073;-84
2023/05/18 08:16:46;;;;;;;7.15;4.25;;;12.30;99.90;;;;;;5025110;28;20056;-84
2023/05/18 08:19:12;;;;;;;5.07;3.50;;;12.30;99.90;;;;;;5019237;28;20030;-83
2023/05/18 08:21:38;;;;;;;6.13;3.75;;;12.00;99.90;;;;;;5022741;28;20034;-82
2023/05/18 08:24:06;;;;;;;8.52;4.10;;;12.10;99.90;;;;;;5022652;28;20026;-82
2023/05/18 08:26:32;;;;;;;8.98;4.22;;;12.30;99.90;;;;;;5019499;28;20081;-85
2023/05/18 08:28:58;;;;;;;4.78;2.80;;;12.70;99.90;;;;;;5018849;28;20068;-79
2023/05/18 08:31:24;;;;;;;8.75;3.05;;;13.00;99.90;;;;;;5018299;22;20908;-30
2023/05/18 08:33:49;;;;;;;5.80;3.58;;;12.70;99.90;;;;;;5003097;28;20037;-31
2023/05/18 08:36:16;;;;;;;3.92;2.50;;;12.60;99.90;;;;;;5016874;28;20104;-30
2023/05/18 08:38:42;;;;;;;7.18;2.78;;;12.80;99.90;;;;;;5021123;28;20490;-30
2023/05/18 08:41:28;;;;;;;9.05;3.20;;;13.00;99.90;;;;;;4996649;28;20542;-30
2023/05/18 08:44:01;;;;;;;5.00;2.42;;;13.00;99.90;;;;;;5002834;28;20029;-31
2023/05/18 08:46:33;;;;;;;5.57;2.67;;;13.10;99.90;;;;;;5015041;28;20041;-30
2023/05/18 08:49:01;;;;;;;4.18;2.67;;;13.00;99.90;;;;;;4987288;28;20037;-30
2023/05/18 08:51:31;;;;;;;4.90;2.90;;;13.00;99.90;;;;;;5013753;28;20037;-31
2023/05/18 08:53:58;;;;;;;7.22;2.40;;;13.20;99.90;;;;;;5015015;28;20042;-30
2023/05/18 08:56:25;;;;;;;4.47;3.05;;;13.40;99.90;;;;;;5023325;28;20128;-41
2023/05/18 08:58:55;;;;;;;6.28;3.33;;;13.40;99.90;;;;;;5016957;28;20471;-42
2023/05/18 09:01:26;;;;;;;6.45;3.40;;;13.50;99.90;;;;;;5015227;28;20085;-41
2023/05/18 09:03:52;;;;;;;4.47;2.60;;;13.50;99.90;;;;;;5015724;28;20029;-41
2023/05/18 09:06:20;;;;;;;4.90;2.65;;;13.50;99.90;;;;;;5014003;28;20033;-41
2023/05/18 09:08:47;;;;;;;5.78;2.70;;;13.70;99.90;;;;;;5021411;28;20025;-42
2023/05/18 09:11:13;;;;;;;4.88;2.50;;;13.90;99.90;;;;;;5012118;28;20769;-41
2023/05/18 09:13:39;;;;;;;6.13;3.20;;;14.00;99.90;;;;;;5013369;28;20062;-42
2023/05/18 09:16:06;;;;;;;7.78;2.97;;;14.10;99.90;;;;;;5016435;28;20053;-41
2023/05/18 09:18:32;;;;;;;4.50;2.53;;;14.10;99.90;;;;;;5010648;28;20035;-41
2023/05/18 09:20:57;;;;;;;6.80;3.05;;;14.30;99.90;;;;;;5022942;28;20026;-41
2023/05/18 09:23:23;;;;;;;6.35;2.70;;;14.40;99.90;;;;;;5020195;28;20037;-42
2023/05/18 09:25:51;;;;;;;5.30;2.88;;;14.50;99.90;;;;;;5020483;28;20135;-41
2023/05/18 09:28:50;;;;;;;4.28;2.88;;;13.90;99.90;;;;;;5015083;28;20036;-42
2023/05/18 09:31:18;;;;;;;5.47;2.80;;;13.80;99.90;;;;;;4996159;28;20034;-42
2023/05/18 09:33:45;;;;;;;7.38;3.05;;;13.60;99.90;;;;;;5020345;28;20033;-42
2023/05/18 09:36:11;;;;;;;4.78;2.70;;;13.40;99.90;;;;;;5004507;28;20035;-42
2023/05/18 09:38:55;;;;;;;7.50;3.13;;;13.30;99.90;;;;;;5007629;28;20021;-42
2023/05/18 09:41:24;;;;;;;6.72;2.90;;;13.60;99.90;;;;;;5011065;28;20064;-41
2023/05/18 09:43:51;;;;;;;5.60;2.75;;;14.00;99.90;;;;;;5014568;28;20462;-42
2023/05/18 09:46:17;;;;;;;7.75;3.78;;;13.70;99.90;;;;;;4997794;28;20495;-42
2023/05/18 09:48:45;;;;;;;3.65;2.45;;;13.30;99.90;;;;;;5020720;28;20515;-41
2023/05/18 09:51:15;;;;;;;4.07;2.40;;;13.60;99.90;;;;;;4989720;28;20529;-42
2023/05/18 09:53:41;;;;;;;8.00;2.47;;;14.00;99.90;;;;;;5021872;28;20037;-42
2023/05/18 09:56:10;;;;;;;4.72;2.47;;;14.40;99.90;;;;;;5027354;28;20506;-42
2023/05/18 09:58:38;;;;;;;5.20;2.65;;;14.50;99.90;;;;;;5012828;28;20029;-41
2023/05/18 10:01:04;;;;;;;7.70;2.73;;;15.00;99.90;;;;;;5021310;28;20059;-42
2023/05/18 10:03:38;;;;;;;6.38;2.58;;;15.30;99.90;;;;;;5010877;28;20372;-42
2023/05/18 10:06:05;;;;;;;5.45;2.83;;;15.00;99.90;;;;;;5019026;28;20085;-42
2023/05/18 10:08:32;;;;;;;6.32;2.97;;;14.90;99.90;;;;;;5013747;28;20034;-42
2023/05/18 10:10:58;;;;;;;4.95;2.45;;;15.10;99.90;;;;;;5020395;28;20025;-42
2023/05/18 10:13:26;;;;;;;5.80;2.38;;;15.40;99.90;;;;;;5007190;28;20030;-42
2023/05/18 10:15:53;;;;;;;;;;;14.90;99.90;;;;;;5014026;28;20033;-41
2023/05/18 10:18:27;;;;;;;4.90;2.57;;;14.30;99.90;;;;;;5010182;28;19910;-41
2023/05/18 10:20:55;;;;;;;5.22;2.35;;;14.30;99.90;;;;;;5011289;28;20276;-41
2023/05/18 10:23:22;;;;;;;5.15;3.22;;;14.50;99.90;;;;;;5018178;28;20361;-42
2023/05/18 10:25:49;;;;;;;6.45;2.78;;;14.60;99.90;;;;;;5012255;28;20033;-41
2023/05/18 10:28:24;;;;;;;10.07;3.13;;;14.20;99.90;;;;;;5009943;28;20022;-42
2023/05/18 10:30:52;;;;;;;8.13;2.80;;;14.00;99.90;;;;;;5019459;28;20038;-41
2023/05/18 10:33:19;;;;;;;4.67;2.60;;;14.10;99.90;;;;;;5014554;28;20128;-41
2023/05/18 10:35:48;;;;;;;4.00;2.25;;;14.10;99.90;;;;;;5008518;28;20057;-42
2023/05/18 10:38:20;;;;;;;6.32;2.75;;;13.70;99.90;;;;;;5013012;28;20026;-41
2023/05/18 10:40:48;;;;;;;6.32;2.75;;;13.50;99.90;;;;;;5016068;28;20052;-41
2023/05/18 10:43:17;;;;;;;4.80;2.90;;;13.50;99.90;;;;;;5012204;28;20101;-42
2023/05/18 10:45:56;;;;;;;3.28;2.40;;;13.90;99.90;;;;;;5012937;28;20045;-41
2023/05/18 10:48:22;;;;;;;5.40;2.60;;;14.30;99.90;;;;;;5016352;28;20030;-41
2023/05/18 10:50:49;;;;;;;8.07;2.85;;;13.90;99.90;;;;;;5006244;28;20731;-41
2023/05/18 10:53:17;;;;;;;5.55;2.80;;;13.60;99.90;;;;;;5010688;28;20029;-41
2023/05/18 10:55:43;;;;;;;;;;;13.60;99.90;;;;;;5015523;28;20030;-41
2023/05/18 10:58:13;;;;;;;4.80;2.33;;;13.70;99.90;;;;;;5009446;28;19923;-41
2023/05/18 11:00:41;;;;;;;3.97;2.30;;;13.50;99.90;;;;;;5011572;28;21121;-42
2023/05/18 11:03:12;;;;;;;5.93;2.50;;;13.30;99.90;;;;;;5011640;28;20436;-42
2023/05/18 11:05:39;;;;;;;7.57;2.75;;;13.30;99.90;;;;;;4996326;28;20041;-42
2023/05/18 11:08:05;;;;;;;3.22;2.28;;;13.40;99.90;;;;;;5010719;28;20021;-41
2023/05/18 11:10:48;;;;;;;4.63;3.10;;;13.50;99.90;;;;;;5010316;28;20109;-42
2023/05/18 11:13:14;;;;;;;4.38;2.88;;;13.50;99.90;;;;;;5008124;28;20079;-42
2023/05/18 11:15:52;;;;;;;6.57;2.92;;;13.30;99.90;;;;;;5008176;28;20026;-41
2023/05/18 11:18:18;;;;;;;6.90;2.28;;;13.20;99.90;;;;;;5012425;28;20819;-41
2023/05/18 11:20:48;;;;;;;5.03;2.45;;;13.30;99.90;;;;;;4992174;28;20037;-41
2023/05/18 11:23:15;;;;;;;5.18;1.90;;;13.30;99.90;;;;;;5009357;28;20029;-41
2023/05/18 11:25:42;;;;;;;6.68;2.20;;;13.30;99.90;;;;;;5011159;28;20486;-42
2023/05/18 11:28:10;;;;;;;7.88;2.40;;;13.10;99.90;;;;;;5010892;28;20033;-42
2023/05/18 11:30:36;;;;;;;4.80;2.38;;;13.10;99.90;;;;;;5003757;28;20038;-42
2023/05/18 11:33:16;;;;;;;6.57;2.55;;;13.20;99.90;;;;;;5007730;28;20078;-41
2023/05/18 11:36:03;;;;;;;5.40;2.60;;;13.30;99.90;;;;;;5013104;28;20025;-41
2023/05/18 11:38:46;;;;;;;3.95;2.30;;;13.30;99.90;;;;;;5011677;28;20379;-42
2023/05/18 11:41:37;;;;;;;4.57;2.72;;;13.30;99.90;;;;;;5014150;28;20028;-41
2023/05/18 11:44:15;;;;;;;5.68;3.40;;;13.40;99.90;;;;;;5008214;28;20044;-42
2023/05/18 11:46:57;;;;;;;2.78;2.50;;;13.60;99.90;;;;;;5015394;28;20041;-41
2023/05/18 11:49:28;;;;;;;5.60;3.63;;;13.80;99.90;;;;;;5005328;28;20042;-42
2023/05/18 11:52:12;;;;;;;6.80;3.38;;;13.80;99.90;;;;;;5013743;28;20526;-42
2023/05/18 11:54:48;;;;;;;4.35;2.28;;;13.80;99.90;;;;;;5008085;28;20041;-41
2023/05/18 11:57:16;;;;;;;4.57;2.75;;;13.60;99.90;;;;;;5008327;28;20026;-41
2023/05/18 11:59:53;;;;;;;4.75;2.72;;;13.50;99.90;;;;;;5008595;28;20026;-42
2023/05/18 12:02:21;;;;;;;6.85;2.50;;;13.50;99.90;;;;;;5009641;28;20076;-42
2023/05/18 12:04:52;;;;;;;3.65;2.83;;;13.40;99.90;;;;;;5005350;28;20384;-42
2023/05/18 12:07:19;;;;;;;4.07;2.65;;;13.40;99.90;;;;;;5018766;28;20571;-41
2023/05/18 12:09:46;;;;;;;5.53;2.40;;;13.50;99.90;;;;;;4992560;28;20030;-42
2023/05/18 12:12:15;;;;;;;4.88;2.45;;;13.80;99.90;;;;;;5013418;28;20112;-43
2023/05/18 12:14:41;;;;;;;5.20;2.63;;;13.70;99.90;;;;;;5008447;28;20113;-42
2023/05/18 12:17:09;;;;;;;4.75;2.50;;;13.50;99.90;;;;;;5004487;28;20037;-42
2023/05/18 12:19:42;;;;;;;4.67;2.40;;;13.30;99.90;;;;;;5007221;28;20040;-42
2023/05/18 12:22:09;;;;;;;4.65;2.85;;;13.20;99.90;;;;;;5011362;28;20534;-41
2023/05/18 12:24:39;;;;;;;4.03;2.50;;;13.20;99.90;;;;;;5015123;28;20022;-41
2023/05/18 12:27:06;;;;;;;3.97;2.47;;;13.20;99.90;;;;;;5016794;28;20033;-42
2023/05/18 12:29:32;;;;;;;9.10;4.03;;;13.30;99.90;;;;;;5008836;28;20499;-42
2023/05/18 12:31:58;;;;;;;6.60;3.58;;;13.40;99.90;;;;;;5011974;28;20046;-42
2023/05/18 12:34:28;;;;;;;7.25;3.85;;;13.60;99.90;;;;;;5015591;28;20084;-41
2023/05/18 12:36:54;;;;;;;5.13;2.83;;;13.90;99.90;;;;;;5020760;28;20487;-41
2023/05/18 12:39:20;;;;;;;4.45;2.65;;;14.00;99.90;;;;;;5005939;28;20033;-44
2023/05/18 12:41:46;;;;;;;4.65;2.90;;;14.00;99.90;;;;;;5003772;28;20093;-42
2023/05/18 12:44:13;;;;;;;7.30;4.38;;;14.00;99.90;;;;;;5011454;28;20044;-42
2023/05/18 12:46:41;;;;;;;5.43;4.10;;;14.10;99.90;;;;;;5019037;28;20048;-42
2023/05/18 12:49:08;;;;;;;4.55;2.50;;;14.40;99.90;;;;;;5012423;28;20041;-42
2023/05/18 12:51:35;;;;;;;5.32;2.60;;;14.50;99.90;;;;;;5009642;28;20025;-42
2023/05/18 12:54:10;;;;;;;4.32;2.50;;;14.50;99.90;;;;;;5013144;28;20030;-42
2023/05/18 12:56:51;;;;;;;4.38;2.70;;;14.40;99.90;;;;;;5010990;28;20576;-41
2023/05/18 12:59:18;;;;;;;4.78;2.80;;;14.20;99.90;;;;;;5012825;28;20026;-42